Time;durP1;ratioP1;P1;durP2;ratioP2;P2;SDS_P1;SDS_P2;PMS_P1;PMS_P2;Temp;Humidity;BMP_temperature;BMP_pressure;BME280_temperature;BME280_humidity;BME280_pressure;Samples;Min_cycle;Max_cycle;Signal;HPM_P1;HPM_P2
2024/03/29 00:00:37;;;;;;;1.33;0.70;;;7.90;97.50;;;;;;5032263;28;20069;-67
2024/03/29 00:03:03;;;;;;;2.88;1.02;;;8.00;97.50;;;;;;5031386;28;20025;-68
2024/03/29 00:05:29;;;;;;;1.83;0.93;;;8.00;97.40;;;;;;5031513;28;20059;-68
2024/03/29 00:07:55;;;;;;;2.17;0.80;;;8.10;97.40;;;;;;5030435;28;20029;-68
2024/03/29 00:10:20;;;;;;;2.95;1.10;;;8.10;97.40;;;;;;5030506;28;20036;-68
2024/03/29 00:12:46;;;;;;;3.08;1.13;;;8.20;97.50;;;;;;5026311;28;20441;-68
2024/03/29 00:15:11;;;;;;;3.35;1.13;;;8.20;97.50;;;;;;5032433;28;20021;-68
2024/03/29 00:17:37;;;;;;;3.53;0.90;;;8.20;97.50;;;;;;5029841;28;20462;-68
2024/03/29 00:20:04;;;;;;;2.92;1.08;;;8.20;97.50;;;;;;5032213;28;20048;-68
2024/03/29 00:22:30;;;;;;;3.03;1.38;;;8.20;97.40;;;;;;5030623;28;20075;-68
2024/03/29 00:24:55;;;;;;;2.78;0.90;;;8.30;97.40;;;;;;5029794;28;20029;-68
2024/03/29 00:27:25;;;;;;;1.80;0.80;;;8.30;97.50;;;;;;5028536;28;20124;-68
2024/03/29 00:29:53;;;;;;;5.40;0.88;;;8.30;97.50;;;;;;5025211;28;20386;-68
2024/03/29 00:32:19;;;;;;;4.10;0.98;;;8.30;97.50;;;;;;5030883;28;20029;-68
2024/03/29 00:34:45;;;;;;;2.58;1.10;;;8.30;97.50;;;;;;5031086;28;20104;-67
2024/03/29 00:37:11;;;;;;;1.58;1.00;;;8.30;97.50;;;;;;5030243;28;20101;-68
2024/03/29 00:39:37;;;;;;;1.98;0.88;;;8.30;97.60;;;;;;5027855;28;20026;-68
2024/03/29 00:42:06;;;;;;;1.10;0.70;;;8.30;97.60;;;;;;5028695;28;20032;-67
2024/03/29 00:44:32;;;;;;;2.33;0.75;;;8.30;97.60;;;;;;5029829;28;20079;-68
2024/03/29 00:46:58;;;;;;;1.92;1.00;;;8.30;97.60;;;;;;5027919;28;20043;-68
2024/03/29 00:49:23;;;;;;;1.73;0.90;;;8.40;97.60;;;;;;5030133;28;20051;-68
2024/03/29 00:51:49;;;;;;;3.92;0.63;;;8.30;97.70;;;;;;5028185;28;20064;-68
2024/03/29 00:54:14;;;;;;;2.90;1.10;;;8.20;97.80;;;;;;5031588;28;20037;-68
2024/03/29 00:56:40;;;;;;;1.92;0.90;;;8.30;97.90;;;;;;5029596;28;20044;-67
2024/03/29 00:59:06;;;;;;;2.65;0.90;;;8.20;97.90;;;;;;5031418;28;20484;-67
2024/03/29 01:01:32;;;;;;;2.15;0.85;;;8.20;98.00;;;;;;5029232;28;20032;-68
2024/03/29 01:03:58;;;;;;;3.65;0.90;;;8.30;97.90;;;;;;5025586;28;20488;-68
2024/03/29 01:06:23;;;;;;;1.23;0.70;;;8.30;98.00;;;;;;5030310;28;20018;-68
2024/03/29 01:08:49;;;;;;;2.58;0.82;;;8.30;98.10;;;;;;5030172;28;20029;-67
2024/03/29 01:11:15;;;;;;;1.20;0.70;;;8.30;98.10;;;;;;5029410;28;20029;-67
2024/03/29 01:13:40;;;;;;;0.80;0.80;;;8.30;98.10;;;;;;5028386;28;20049;-67
2024/03/29 01:16:06;;;;;;;1.65;0.73;;;8.20;98.30;;;;;;5028367;28;20899;-68
2024/03/29 01:18:33;;;;;;;0.75;0.52;;;8.20;98.40;;;;;;5030405;28;20121;-68
2024/03/29 01:20:59;;;;;;;3.67;1.13;;;8.20;98.40;;;;;;5029766;28;20104;-67
2024/03/29 01:23:24;;;;;;;2.22;0.80;;;8.20;98.40;;;;;;5030033;28;20100;-67
2024/03/29 01:25:50;;;;;;;5.75;1.20;;;8.20;98.50;;;;;;5027478;28;20025;-67
2024/03/29 01:28:15;;;;;;;3.85;1.02;;;8.20;98.60;;;;;;5027961;28;20476;-67
2024/03/29 01:30:41;;;;;;;3.22;1.00;;;8.20;98.60;;;;;;5021920;28;20060;-67
2024/03/29 01:33:06;;;;;;;4.32;1.40;;;8.20;99.00;;;;;;5027919;28;20036;-67
2024/03/29 01:35:32;;;;;;;2.00;0.73;;;8.20;99.00;;;;;;5029106;28;20029;-67
2024/03/29 01:37:58;;;;;;;4.78;0.75;;;8.20;99.00;;;;;;5026128;28;20566;-68
2024/03/29 01:40:23;;;;;;;1.63;0.80;;;8.20;99.00;;;;;;5030214;28;20045;-68
2024/03/29 01:42:53;;;;;;;2.33;0.57;;;8.10;98.80;;;;;;5029164;28;20032;-67
2024/03/29 01:45:19;;;;;;;2.15;0.80;;;8.10;98.70;;;;;;5029677;28;20386;-67
2024/03/29 01:47:46;;;;;;;3.05;1.05;;;8.10;98.70;;;;;;5029312;28;20482;-67
2024/03/29 01:50:11;;;;;;;1.23;0.50;;;8.10;98.30;;;;;;5029506;28;20029;-67
2024/03/29 01:52:38;;;;;;;1.63;0.85;;;8.20;98.10;;;;;;5026693;28;20032;-67
2024/03/29 01:55:04;;;;;;;1.60;0.70;;;8.20;97.90;;;;;;5026790;28;20447;-68
2024/03/29 01:57:29;;;;;;;2.30;0.50;;;8.30;97.80;;;;;;5029793;28;20033;-67
2024/03/29 01:59:56;;;;;;;0.82;0.40;;;8.40;97.30;;;;;;5029451;28;20033;-67
2024/03/29 02:02:23;;;;;;;1.63;0.52;;;8.50;97.20;;;;;;5028833;28;20021;-67
2024/03/29 02:04:49;;;;;;;1.55;0.60;;;8.60;97.20;;;;;;5023703;28;20183;-67
2024/03/29 02:07:14;;;;;;;1.10;0.50;;;8.60;96.90;;;;;;5027001;28;20492;-67
2024/03/29 02:09:40;;;;;;;2.70;0.70;;;8.70;96.90;;;;;;5028286;28;20105;-67
2024/03/29 02:12:06;;;;;;;1.42;0.50;;;8.70;96.70;;;;;;5028621;28;20045;-67
2024/03/29 02:14:31;;;;;;;0.80;0.50;;;8.70;96.80;;;;;;5028748;28;20021;-67
2024/03/29 02:16:57;;;;;;;0.65;0.50;;;8.80;97.00;;;;;;5026885;28;20025;-67
2024/03/29 02:19:23;;;;;;;1.23;0.40;;;8.70;96.60;;;;;;5029805;28;20359;-67
2024/03/29 02:21:51;;;;;;;1.65;0.52;;;8.80;96.80;;;;;;5028711;28;20038;-67
2024/03/29 02:24:17;;;;;;;2.45;0.45;;;8.80;96.60;;;;;;5028483;28;20100;-67
2024/03/29 02:26:44;;;;;;;1.08;0.50;;;8.80;96.70;;;;;;5027021;28;20029;-67
2024/03/29 02:29:10;;;;;;;1.13;0.43;;;8.80;96.50;;;;;;5027874;28;20033;-67
2024/03/29 02:31:36;;;;;;;1.67;0.52;;;8.80;96.30;;;;;;5029124;28;20041;-67
2024/03/29 02:34:01;;;;;;;1.80;0.57;;;8.80;96.50;;;;;;5027896;28;20055;-67
2024/03/29 02:36:27;;;;;;;1.17;0.50;;;8.90;96.30;;;;;;5024441;28;20030;-67
2024/03/29 02:38:53;;;;;;;1.20;0.40;;;8.90;96.20;;;;;;5028953;28;20026;-67
2024/03/29 02:41:18;;;;;;;2.00;0.55;;;8.90;96.20;;;;;;5037952;28;20423;-67
2024/03/29 02:43:44;;;;;;;4.50;1.85;;;8.90;96.30;;;;;;5023048;28;20025;-68
2024/03/29 02:46:09;;;;;;;0.88;0.60;;;8.90;96.30;;;;;;5029113;28;20021;-67
2024/03/29 02:48:35;;;;;;;2.45;0.50;;;8.90;96.30;;;;;;5027589;28;20138;-68
2024/03/29 02:51:01;;;;;;;2.22;0.60;;;8.90;96.20;;;;;;5031392;28;20103;-67
2024/03/29 02:53:27;;;;;;;1.08;0.52;;;8.80;96.30;;;;;;5034167;28;20035;-67
2024/03/29 02:55:52;;;;;;;1.25;0.50;;;8.80;96.60;;;;;;5021663;28;20176;-67
2024/03/29 02:58:18;;;;;;;1.38;0.50;;;8.70;96.50;;;;;;5014216;28;20420;-68
2024/03/29 03:00:43;;;;;;;0.63;0.40;;;8.70;96.60;;;;;;5015195;28;20026;-67
2024/03/29 03:03:09;;;;;;;0.50;0.30;;;8.70;96.60;;;;;;5033989;28;20021;-67
2024/03/29 03:05:35;;;;;;;0.43;0.38;;;8.70;96.40;;;;;;5033422;28;20053;-68
2024/03/29 03:10:59;;;;;;;0.95;0.52;;;8.60;96.90;;;;;;5032610;28;20105;-67
2024/03/29 03:13:29;;;;;;;1.65;0.70;;;8.60;96.90;;;;;;5034087;28;20060;-68
2024/03/29 03:15:55;;;;;;;0.30;0.30;;;8.60;96.80;;;;;;5032292;28;20105;-69
2024/03/29 03:18:21;;;;;;;1.85;0.52;;;8.70;96.60;;;;;;5026857;28;20026;-67
2024/03/29 03:20:53;;;;;;;0.98;0.40;;;8.80;96.30;;;;;;5030003;28;20037;-67
2024/03/29 03:23:20;;;;;;;0.70;0.32;;;8.80;96.30;;;;;;5033661;28;20467;-68
2024/03/29 03:25:56;;;;;;;0.75;0.25;;;8.90;96.00;;;;;;5032124;28;20056;-67
2024/03/29 03:28:22;;;;;;;0.98;0.55;;;8.90;96.10;;;;;;5033637;28;20079;-67
2024/03/29 03:30:49;;;;;;;0.88;0.40;;;8.90;95.90;;;;;;5032482;28;20033;-67
2024/03/29 03:33:15;;;;;;;1.15;0.30;;;9.00;95.90;;;;;;5033296;28;20433;-67
2024/03/29 03:35:41;;;;;;;0.50;0.40;;;9.00;95.80;;;;;;5022027;28;20033;-67
2024/03/29 03:38:08;;;;;;;0.85;0.40;;;9.10;95.50;;;;;;5033048;28;20056;-67
2024/03/29 03:40:34;;;;;;;0.60;0.30;;;9.10;95.40;;;;;;5033663;28;20034;-68
2024/03/29 03:43:01;;;;;;;1.05;0.50;;;9.10;95.50;;;;;;5032319;28;20557;-67
2024/03/29 03:45:27;;;;;;;0.32;0.30;;;9.10;95.60;;;;;;5033239;28;20055;-68
2024/03/29 03:47:52;;;;;;;0.55;0.40;;;9.10;95.90;;;;;;5031848;28;20317;-67
2024/03/29 03:50:18;;;;;;;0.70;0.40;;;9.10;95.80;;;;;;5033301;28;20030;-67
2024/03/29 03:52:43;;;;;;;0.30;0.30;;;9.10;95.70;;;;;;5028280;28;20475;-68
2024/03/29 03:55:09;;;;;;;0.77;0.40;;;9.10;95.80;;;;;;5033001;28;20030;-67
2024/03/29 03:57:34;;;;;;;0.40;0.25;;;9.10;95.90;;;;;;5032618;28;20025;-67
2024/03/29 04:00:01;;;;;;;0.32;0.30;;;9.10;95.90;;;;;;5032188;28;20035;-67
2024/03/29 04:02:26;;;;;;;3.00;0.40;;;9.10;95.40;;;;;;5031657;28;20030;-67
2024/03/29 04:04:52;;;;;;;0.40;0.40;;;9.30;96.00;;;;;;5031036;28;20219;-67
2024/03/29 04:07:17;;;;;;;0.40;0.40;;;9.30;96.20;;;;;;5032494;28;20037;-67
2024/03/29 04:09:43;;;;;;;0.82;0.57;;;9.20;96.40;;;;;;5039126;28;20033;-67
2024/03/29 04:12:09;;;;;;;0.50;0.50;;;9.10;97.00;;;;;;5032982;28;20053;-67
2024/03/29 04:14:34;;;;;;;1.63;0.75;;;9.00;97.50;;;;;;5032432;28;20045;-68
2024/03/29 04:17:00;;;;;;;2.42;0.95;;;8.90;97.70;;;;;;5031579;28;20040;-67
2024/03/29 04:19:25;;;;;;;5.15;1.60;;;8.90;98.10;;;;;;5032811;28;20378;-67
2024/03/29 04:21:52;;;;;;;3.38;1.00;;;8.90;98.10;;;;;;5031342;28;20029;-67
2024/03/29 04:24:18;;;;;;;2.38;1.17;;;8.70;98.40;;;;;;5032385;28;20216;-68
2024/03/29 04:26:44;;;;;;;3.35;1.02;;;8.60;98.80;;;;;;5021168;28;20124;-68
2024/03/29 04:29:10;;;;;;;2.25;0.90;;;8.40;99.00;;;;;;5032785;28;20026;-68
2024/03/29 04:31:36;;;;;;;1.85;0.95;;;8.30;99.20;;;;;;5031977;28;20033;-67
2024/03/29 04:34:01;;;;;;;1.48;0.80;;;8.30;99.10;;;;;;5032123;28;20029;-67
2024/03/29 04:36:27;;;;;;;1.35;0.60;;;8.30;98.70;;;;;;5018157;28;20036;-67
2024/03/29 04:38:53;;;;;;;0.52;0.47;;;8.30;98.60;;;;;;5018676;28;20044;-67
2024/03/29 04:41:19;;;;;;;0.65;0.35;;;8.30;97.90;;;;;;5031914;28;20033;-67
2024/03/29 04:43:45;;;;;;;0.40;0.35;;;8.50;97.20;;;;;;5018890;28;20031;-67
2024/03/29 04:46:12;;;;;;;0.60;0.32;;;8.60;97.10;;;;;;5031460;28;20103;-67
2024/03/29 04:48:40;;;;;;;0.88;0.50;;;8.70;96.90;;;;;;5031902;28;20219;-67
2024/03/29 04:51:05;;;;;;;1.23;0.40;;;8.80;96.60;;;;;;5031755;28;20044;-67
2024/03/29 04:53:31;;;;;;;0.63;0.50;;;8.80;96.70;;;;;;5032430;28;20025;-68
2024/03/29 04:55:57;;;;;;;1.52;0.60;;;8.90;97.00;;;;;;5030749;28;20641;-67
2024/03/29 04:58:24;;;;;;;1.15;0.77;;;8.90;97.00;;;;;;5029882;28;20105;-67
2024/03/29 05:00:50;;;;;;;0.55;0.40;;;8.90;96.80;;;;;;5020193;28;20037;-67
2024/03/29 05:03:18;;;;;;;0.80;0.60;;;8.90;96.60;;;;;;5016815;28;20083;-67
2024/03/29 05:05:44;;;;;;;0.95;0.55;;;9.10;96.90;;;;;;5025668;28;20123;-67
2024/03/29 05:08:09;;;;;;;2.17;0.82;;;9.10;96.40;;;;;;5031622;28;20045;-66
2024/03/29 05:10:35;;;;;;;1.50;0.65;;;9.20;97.10;;;;;;5031672;28;20029;-66
2024/03/29 05:13:01;;;;;;;0.75;0.50;;;9.20;97.50;;;;;;5030206;28;20071;-66
2024/03/29 05:15:27;;;;;;;0.98;0.60;;;9.00;97.60;;;;;;5031585;28;20056;-66
2024/03/29 05:17:53;;;;;;;1.33;0.57;;;9.00;97.90;;;;;;5024990;28;20029;-68
2024/03/29 05:20:19;;;;;;;1.10;0.70;;;8.90;98.10;;;;;;5031450;28;20029;-66
2024/03/29 05:22:45;;;;;;;2.95;1.50;;;8.80;97.90;;;;;;5030472;28;20359;-67
2024/03/29 05:25:10;;;;;;;3.22;1.65;;;8.80;97.20;;;;;;5031068;28;20033;-67
2024/03/29 05:27:36;;;;;;;1.70;1.13;;;8.80;97.10;;;;;;5030453;28;20028;-66
2024/03/29 05:30:03;;;;;;;1.23;0.85;;;8.80;96.80;;;;;;5030984;28;20068;-66
2024/03/29 05:32:32;;;;;;;0.95;0.60;;;8.90;96.70;;;;;;5031064;28;20033;-66
2024/03/29 05:34:57;;;;;;;1.30;0.80;;;8.90;96.80;;;;;;5019551;28;20037;-68
2024/03/29 05:37:25;;;;;;;0.70;0.50;;;9.00;96.90;;;;;;5030608;28;20049;-66
2024/03/29 05:39:58;;;;;;;0.40;0.35;;;9.00;96.80;;;;;;5025272;28;20076;-66
2024/03/29 05:42:27;;;;;;;2.22;0.90;;;9.00;96.60;;;;;;5030411;28;20029;-68
2024/03/29 05:44:53;;;;;;;3.22;1.25;;;9.00;96.70;;;;;;5029837;28;20040;-68
2024/03/29 05:47:19;;;;;;;4.53;1.52;;;9.00;96.90;;;;;;5030510;28;20029;-66
2024/03/29 05:49:45;;;;;;;6.45;2.92;;;9.00;97.20;;;;;;5030349;28;20060;-66
2024/03/29 05:52:13;;;;;;;8.45;3.20;;;9.00;97.80;;;;;;5023734;28;20482;-66
2024/03/29 05:54:42;;;;;;;3.42;1.45;;;9.00;98.20;;;;;;5028818;28;20045;-66
2024/03/29 05:57:08;;;;;;;4.13;1.98;;;9.00;97.90;;;;;;5028366;28;20478;-68
2024/03/29 05:59:34;;;;;;;4.13;1.42;;;9.10;97.90;;;;;;5028873;28;20087;-67
2024/03/29 06:02:00;;;;;;;3.28;1.40;;;9.10;98.50;;;;;;5026631;28;20110;-67
2024/03/29 06:04:32;;;;;;;6.55;2.30;;;9.10;98.40;;;;;;5025093;28;20057;-67
2024/03/29 06:07:01;;;;;;;7.55;2.50;;;9.10;98.50;;;;;;5027901;28;20033;-67
2024/03/29 06:09:26;;;;;;;5.88;2.63;;;9.10;98.60;;;;;;5025866;28;20029;-67
2024/03/29 06:11:56;;;;;;;4.72;1.92;;;9.10;98.40;;;;;;5041952;28;20467;-67
2024/03/29 06:17:23;;;;;;;2.10;0.65;;;9.20;97.00;;;;;;5029493;28;20044;-67
2024/03/29 06:19:55;;;;;;;1.70;0.68;;;9.40;95.00;;;;;;5029719;28;20027;-66
2024/03/29 06:22:21;;;;;;;0.95;0.50;;;9.60;94.60;;;;;;5016702;28;20025;-67
2024/03/29 06:24:48;;;;;;;1.60;0.43;;;9.70;94.40;;;;;;5027785;28;20033;-66
2024/03/29 06:27:17;;;;;;;0.50;0.38;;;9.80;94.20;;;;;;5028881;28;20029;-68
2024/03/29 06:29:44;;;;;;;0.60;0.47;;;9.90;94.20;;;;;;5021722;28;20505;-66
2024/03/29 06:32:10;;;;;;;0.63;0.40;;;10.00;94.20;;;;;;5025442;28;20026;-67
2024/03/29 06:34:36;;;;;;;0.55;0.35;;;10.10;93.80;;;;;;5026853;28;20029;-67
2024/03/29 06:37:02;;;;;;;0.45;0.40;;;10.30;93.90;;;;;;5023496;28;20033;-69
2024/03/29 06:39:27;;;;;;;0.40;0.30;;;10.40;93.60;;;;;;5029687;28;20108;-69
2024/03/29 06:41:53;;;;;;;0.30;0.30;;;10.50;93.50;;;;;;5027536;28;20131;-70
2024/03/29 06:44:19;;;;;;;0.50;0.38;;;10.50;93.70;;;;;;5021655;28;20509;-69
2024/03/29 06:46:46;;;;;;;1.42;0.70;;;10.60;93.10;;;;;;5030879;28;20030;-68
2024/03/29 06:49:11;;;;;;;0.32;0.32;;;10.70;93.20;;;;;;5023475;28;20378;-68
2024/03/29 06:51:40;;;;;;;0.98;0.50;;;10.80;94.00;;;;;;5029010;28;20033;-67
2024/03/29 06:54:05;;;;;;;1.65;1.15;;;10.90;93.80;;;;;;5029876;28;20049;-68
2024/03/29 06:56:31;;;;;;;5.60;2.95;;;11.00;93.90;;;;;;5028765;28;20117;-68
2024/03/29 06:58:56;;;;;;;5.88;2.35;;;11.10;94.20;;;;;;5020655;28;20022;-68
2024/03/29 07:01:22;;;;;;;4.97;3.20;;;11.10;94.40;;;;;;5028665;28;20037;-66
2024/03/29 07:03:47;;;;;;;4.78;1.95;;;11.20;94.60;;;;;;5028053;28;20495;-67
2024/03/29 07:06:13;;;;;;;2.63;1.48;;;11.30;94.70;;;;;;5027602;28;20030;-68
2024/03/29 07:08:39;;;;;;;2.58;0.95;;;11.30;94.70;;;;;;5028761;28;20033;-68
2024/03/29 07:11:05;;;;;;;1.30;0.90;;;11.40;94.80;;;;;;5028629;28;20525;-69
2024/03/29 07:13:31;;;;;;;1.50;1.00;;;11.40;94.60;;;;;;5027355;28;20083;-68
2024/03/29 07:15:58;;;;;;;4.20;1.00;;;11.50;94.80;;;;;;5025046;28;20033;-68
2024/03/29 07:18:24;;;;;;;1.17;0.80;;;11.60;94.60;;;;;;5029342;28;20478;-68
2024/03/29 07:20:50;;;;;;;1.33;0.90;;;11.50;94.60;;;;;;5027587;28;20033;-68
2024/03/29 07:23:16;;;;;;;0.77;0.70;;;11.40;94.50;;;;;;5029461;28;20442;-68
2024/03/29 07:25:45;;;;;;;2.05;0.90;;;11.20;94.60;;;;;;5027991;28;20033;-67
2024/03/29 07:28:14;;;;;;;1.05;0.95;;;11.10;94.90;;;;;;5029240;28;20030;-68
2024/03/29 07:30:44;;;;;;;0.93;0.80;;;10.90;95.30;;;;;;5033898;28;20112;-66
2024/03/29 07:33:10;;;;;;;2.25;0.88;;;10.80;96.00;;;;;;5033404;28;20264;-67
2024/03/29 07:35:37;;;;;;;1.70;0.68;;;10.70;96.50;;;;;;5034565;28;20116;-67
2024/03/29 07:38:03;;;;;;;2.05;0.70;;;10.40;97.20;;;;;;5037822;28;20072;-68
2024/03/29 07:40:29;;;;;;;1.40;0.85;;;10.00;98.40;;;;;;5032509;28;20053;-68
2024/03/29 07:42:55;;;;;;;3.17;1.10;;;9.50;99.90;;;;;;5031718;28;20083;-68
2024/03/29 07:45:21;;;;;;;2.20;1.00;;;9.00;99.90;;;;;;5032110;28;20430;-69
2024/03/29 07:47:52;;;;;;;2.50;1.35;;;8.60;99.90;;;;;;5031670;28;20056;-68
2024/03/29 07:50:18;;;;;;;3.95;1.63;;;8.20;99.90;;;;;;5020510;28;20474;-68
2024/03/29 07:52:45;;;;;;;3.45;1.40;;;7.90;99.90;;;;;;5018010;28;20087;-69
2024/03/29 07:55:11;;;;;;;2.80;1.40;;;;;;;;;;5020099;28;20061;-68
2024/03/29 07:57:36;;;;;;;5.07;1.30;;;7.60;99.90;;;;;;5035240;28;20068;-68
2024/03/29 08:00:03;;;;;;;1.92;1.10;;;7.50;99.90;;;;;;5040355;28;20025;-70
2024/03/29 08:02:30;;;;;;;3.70;1.08;;;7.40;99.90;;;;;;5019655;28;20419;-69
2024/03/29 08:04:55;;;;;;;2.97;0.70;;;7.40;99.90;;;;;;5021998;28;20761;-68
2024/03/29 08:07:21;;;;;;;2.90;0.70;;;7.30;99.90;;;;;;5025033;28;20030;-69
2024/03/29 08:09:47;;;;;;;1.55;0.70;;;7.30;99.90;;;;;;5031133;28;20037;-69
2024/03/29 08:12:12;;;;;;;0.70;0.50;;;7.30;99.90;;;;;;5030910;28;20026;-69
2024/03/29 08:14:38;;;;;;;1.48;0.60;;;7.30;99.90;;;;;;5023530;28;20026;-68
2024/03/29 08:17:07;;;;;;;0.30;0.30;;;7.30;99.90;;;;;;5020363;28;20105;-69
2024/03/29 08:19:34;;;;;;;3.45;0.68;;;7.30;99.90;;;;;;5031723;28;20026;-69
2024/03/29 08:22:00;;;;;;;2.13;0.80;;;7.30;99.90;;;;;;5030744;28;20041;-69
2024/03/29 08:24:26;;;;;;;0.98;0.50;;;7.30;99.90;;;;;;5029394;28;20448;-69
2024/03/29 08:26:52;;;;;;;1.48;0.82;;;7.30;99.90;;;;;;5027898;28;20100;-69
2024/03/29 08:29:17;;;;;;;1.77;0.90;;;7.30;99.90;;;;;;5031585;28;20049;-70
2024/03/29 08:31:43;;;;;;;3.45;0.90;;;7.30;99.90;;;;;;5030894;28;20026;-72
2024/03/29 08:34:13;;;;;;;2.78;0.60;;;7.30;99.90;;;;;;5027100;28;20056;-73
2024/03/29 08:36:39;;;;;;;1.05;0.63;;;7.40;99.90;;;;;;5025570;28;20033;-71
2024/03/29 08:39:05;;;;;;;1.48;0.70;;;7.40;99.90;;;;;;5031106;28;20136;-73
2024/03/29 08:41:31;;;;;;;2.47;0.85;;;7.40;99.90;;;;;;5024630;28;20046;-75
2024/03/29 08:43:56;;;;;;;2.60;0.73;;;7.50;99.90;;;;;;5037154;28;20112;-73
2024/03/29 08:46:22;;;;;;;1.45;0.63;;;7.60;99.90;;;;;;5043597;28;20028;-73
2024/03/29 08:48:48;;;;;;;1.00;0.70;;;7.70;99.90;;;;;;5048092;28;20377;-71
2024/03/29 08:51:14;;;;;;;2.25;0.70;;;7.80;99.90;;;;;;5044376;28;20119;-74
2024/03/29 08:53:40;;;;;;;2.08;0.65;;;7.90;99.90;;;;;;5037607;28;20475;-72
2024/03/29 08:56:06;;;;;;;1.08;0.47;;;8.00;99.90;;;;;;5030736;28;20084;-77
2024/03/29 08:58:32;;;;;;;0.60;0.47;;;8.10;99.90;;;;;;5031103;28;20035;-73
2024/03/29 09:00:58;;;;;;;2.80;0.70;;;8.20;99.90;;;;;;5029831;28;20060;-74
2024/03/29 09:03:24;;;;;;;0.88;0.60;;;8.30;99.90;;;;;;5031357;28;20091;-73
2024/03/29 09:05:50;;;;;;;1.13;0.93;;;8.50;99.90;;;;;;5027689;28;20042;-74
2024/03/29 09:08:17;;;;;;;1.95;1.15;;;8.60;99.90;;;;;;5031005;28;20398;-73
2024/03/29 09:10:43;;;;;;;3.33;1.30;;;8.80;99.90;;;;;;5029006;28;20382;-73
2024/03/29 09:13:10;;;;;;;2.20;1.23;;;8.80;99.90;;;;;;5026418;28;20510;-72
2024/03/29 09:15:36;;;;;;;3.28;1.88;;;8.70;99.90;;;;;;5025439;28;20453;-71
2024/03/29 09:18:10;;;;;;;1.60;1.20;;;8.60;99.90;;;;;;5029571;28;20034;-73
2024/03/29 09:20:37;;;;;;;2.70;1.17;;;8.70;99.90;;;;;;5024654;28;20076;-72
2024/03/29 09:23:03;;;;;;;1.30;1.17;;;8.70;99.90;;;;;;5029446;28;20086;-73
2024/03/29 09:25:30;;;;;;;2.78;1.33;;;8.70;99.90;;;;;;5026126;28;20454;-73
2024/03/29 09:27:55;;;;;;;4.50;1.52;;;8.80;99.90;;;;;;5029400;28;20805;-73
2024/03/29 09:30:22;;;;;;;3.00;1.38;;;8.90;99.90;;;;;;5014487;28;20109;-76
2024/03/29 09:32:49;;;;;;;3.88;1.27;;;8.90;99.90;;;;;;5033112;28;20428;-74
2024/03/29 09:35:17;;;;;;;1.95;1.55;;;9.00;99.90;;;;;;5027914;28;20116;-75
2024/03/29 09:37:42;;;;;;;3.45;1.58;;;9.00;99.90;;;;;;5024663;28;20474;-70
2024/03/29 09:40:10;;;;;;;3.85;1.75;;;9.00;99.90;;;;;;5026782;28;20088;-75
2024/03/29 09:42:38;;;;;;;5.90;2.10;;;9.00;99.90;;;;;;5029711;28;20013;-74
2024/03/29 09:45:05;;;;;;;6.22;2.40;;;9.10;99.90;;;;;;5027496;28;20030;-72
2024/03/29 09:47:32;;;;;;;3.83;2.03;;;9.10;99.90;;;;;;5029865;28;20104;-74
2024/03/29 09:50:03;;;;;;;4.05;2.10;;;9.10;99.90;;;;;;5018502;28;20098;-72
2024/03/29 09:52:29;;;;;;;5.60;2.38;;;9.10;99.90;;;;;;5018104;28;20040;-74
2024/03/29 09:54:56;;;;;;;1.88;1.63;;;9.30;99.90;;;;;;5029647;28;20385;-73
2024/03/29 09:57:24;;;;;;;4.95;1.88;;;9.30;99.90;;;;;;5016707;28;20112;-74
2024/03/29 09:59:50;;;;;;;5.85;1.63;;;9.50;99.90;;;;;;5025140;28;20022;-71
2024/03/29 10:02:19;;;;;;;2.42;1.33;;;9.50;99.90;;;;;;5023102;28;20022;-73
2024/03/29 10:04:47;;;;;;;2.97;1.50;;;9.60;99.90;;;;;;5026116;28;20468;-73
2024/03/29 10:07:15;;;;;;;2.33;1.80;;;9.70;99.90;;;;;;5026488;28;20041;-75
2024/03/29 10:09:42;;;;;;;2.40;1.60;;;9.80;99.90;;;;;;5029909;28;20029;-76
2024/03/29 10:12:08;;;;;;;2.78;1.23;;;9.90;99.90;;;;;;5029155;28;20111;-74
2024/03/29 10:14:52;;;;;;;3.20;0.98;;;10.00;99.90;;;;;;5029778;28;20092;-71
2024/03/29 10:17:18;;;;;;;3.10;1.60;;;10.20;99.90;;;;;;5029278;28;20036;-69
2024/03/29 10:19:44;;;;;;;2.28;1.65;;;10.50;99.90;;;;;;5029026;28;20029;-70
2024/03/29 10:22:10;;;;;;;5.00;2.08;;;10.70;99.90;;;;;;5029191;28;20113;-72
2024/03/29 10:24:37;;;;;;;5.63;1.92;;;11.00;99.90;;;;;;5021983;28;20116;-75
2024/03/29 10:27:03;;;;;;;2.38;1.77;;;11.50;99.90;;;;;;5029492;28;20028;-76
2024/03/29 10:29:29;;;;;;;9.23;1.85;;;11.90;99.90;;;;;;5029928;28;20040;-75
2024/03/29 10:31:58;;;;;;;2.97;1.40;;;12.10;99.90;;;;;;5028716;28;20383;-72
2024/03/29 10:34:27;;;;;;;2.97;1.63;;;12.10;99.90;;;;;;5028115;28;20509;-70
2024/03/29 10:36:53;;;;;;;3.03;1.42;;;12.20;99.90;;;;;;5028562;28;20063;-70
2024/03/29 10:39:18;;;;;;;4.75;1.33;;;12.10;99.90;;;;;;5029947;28;20026;-70
2024/03/29 10:41:46;;;;;;;2.10;1.33;;;12.10;99.90;;;;;;5026735;28;20040;-71
2024/03/29 10:44:14;;;;;;;2.33;1.52;;;12.10;99.90;;;;;;5029587;28;20041;-70
2024/03/29 10:46:41;;;;;;;1.77;1.40;;;12.20;99.90;;;;;;5028723;28;20036;-69
2024/03/29 10:49:09;;;;;;;3.55;1.33;;;12.30;99.90;;;;;;5024753;28;20032;-70
2024/03/29 10:51:39;;;;;;;4.40;1.55;;;12.50;99.90;;;;;;5023334;28;20034;-70
2024/03/29 10:54:06;;;;;;;2.70;1.40;;;12.50;99.90;;;;;;5028270;28;20033;-70
2024/03/29 10:56:34;;;;;;;1.70;1.23;;;12.40;99.90;;;;;;5027741;28;20418;-70
2024/03/29 10:59:11;;;;;;;4.07;1.40;;;12.50;99.90;;;;;;5027346;28;20041;-69
2024/03/29 11:01:41;;;;;;;2.63;1.20;;;12.70;99.90;;;;;;5018584;28;20034;-71
2024/03/29 11:04:12;;;;;;;;;;;12.90;99.90;;;;;;5027507;28;20061;-72
2024/03/29 11:06:40;;;;;;;2.42;0.98;;;13.10;99.90;;;;;;5025670;28;19913;-71
2024/03/29 11:09:12;;;;;;;2.05;0.90;;;13.30;99.90;;;;;;5029465;28;20471;-71
2024/03/29 11:11:39;;;;;;;2.00;0.93;;;13.50;99.90;;;;;;5030255;28;20248;-70
2024/03/29 11:14:14;;;;;;;2.33;1.10;;;13.70;99.90;;;;;;5033301;28;20188;-71
2024/03/29 11:16:45;;;;;;;2.38;1.48;;;13.90;99.90;;;;;;5039837;28;20355;-72
2024/03/29 11:19:15;;;;;;;1.95;1.02;;;14.10;99.90;;;;;;5039439;28;20029;-71
2024/03/29 11:21:42;;;;;;;;;;;14.30;99.90;;;;;;5031913;28;20104;-69
2024/03/29 11:24:10;;;;;;;2.50;1.10;;;14.40;99.90;;;;;;5032689;28;19932;-71
2024/03/29 11:26:36;;;;;;;3.30;1.58;;;14.60;99.90;;;;;;5037252;28;20028;-70
2024/03/29 11:29:03;;;;;;;2.83;1.40;;;14.60;99.90;;;;;;5033265;28;20025;-71
2024/03/29 11:31:32;;;;;;;6.53;1.38;;;14.60;99.90;;;;;;5028038;28;20025;-71
2024/03/29 11:33:58;;;;;;;3.22;1.00;;;14.60;99.90;;;;;;5026710;28;20606;-70
2024/03/29 11:36:29;;;;;;;2.63;1.30;;;14.60;99.90;;;;;;5024759;28;20033;-70
2024/03/29 11:38:57;;;;;;;3.65;1.77;;;14.60;99.90;;;;;;5024518;28;20557;-73
2024/03/29 11:41:24;;;;;;;2.72;1.13;;;14.60;99.90;;;;;;5032342;28;20033;-73
2024/03/29 11:43:56;;;;;;;3.67;1.38;;;14.60;99.90;;;;;;5031823;28;20037;-74
2024/03/29 11:46:22;;;;;;;2.03;1.23;;;14.60;99.90;;;;;;5031916;28;20033;-74
2024/03/29 11:48:52;;;;;;;1.85;1.35;;;14.70;99.90;;;;;;5029642;28;20040;-71
2024/03/29 11:51:24;;;;;;;2.15;1.30;;;14.60;99.90;;;;;;5027204;28;20025;-70
2024/03/29 11:53:51;;;;;;;2.40;1.20;;;14.60;99.90;;;;;;5024532;28;20034;-71
2024/03/29 11:56:17;;;;;;;3.03;1.65;;;14.60;99.90;;;;;;5031460;28;20107;-71
2024/03/29 11:58:42;;;;;;;3.95;1.73;;;14.60;99.90;;;;;;5028672;28;20117;-72
2024/03/29 12:01:10;;;;;;;2.95;1.77;;;14.50;99.90;;;;;;5028216;28;20032;-73
2024/03/29 12:03:38;;;;;;;3.10;1.60;;;14.40;99.90;;;;;;5030852;28;20064;-73
2024/03/29 12:06:05;;;;;;;2.95;1.60;;;14.30;99.90;;;;;;5024080;28;20073;-74
2024/03/29 12:08:32;;;;;;;1.38;1.20;;;14.30;99.90;;;;;;5028967;28;20500;-72
2024/03/29 12:10:59;;;;;;;3.63;1.63;;;14.20;99.90;;;;;;5028855;28;20503;-72
2024/03/29 12:13:25;;;;;;;3.33;1.27;;;14.20;99.90;;;;;;5026304;28;20217;-73
2024/03/29 12:15:51;;;;;;;4.57;2.17;;;14.30;99.90;;;;;;5023460;28;20526;-73
2024/03/29 12:18:19;;;;;;;4.40;1.83;;;14.40;99.90;;;;;;5031625;28;20486;-73
2024/03/29 12:20:49;;;;;;;3.00;1.83;;;14.60;99.90;;;;;;5030673;28;20021;-73
2024/03/29 12:23:20;;;;;;;;;;;14.90;99.90;;;;;;5030661;28;20672;-72
2024/03/29 12:25:46;;;;;;;2.58;1.50;;;15.20;99.90;;;;;;5025357;28;20279;-72
2024/03/29 12:28:17;;;;;;;2.00;1.30;;;15.50;99.90;;;;;;5028990;28;20394;-74
2024/03/29 12:30:47;;;;;;;2.95;1.52;;;15.80;99.90;;;;;;5030646;28;20036;-70
2024/03/29 12:33:19;;;;;;;2.60;1.63;;;16.10;99.90;;;;;;5031303;28;20038;-73
2024/03/29 12:35:48;;;;;;;2.78;1.52;;;16.10;99.90;;;;;;5029129;28;20072;-73
2024/03/29 12:38:15;;;;;;;2.88;1.63;;;16.20;99.90;;;;;;5031832;28;20033;-73
2024/03/29 12:40:47;;;;;;;3.25;1.55;;;16.40;99.90;;;;;;5025100;28;20029;-70
2024/03/29 12:43:13;;;;;;;3.67;1.50;;;16.70;99.90;;;;;;5031362;28;20061;-72
2024/03/29 12:45:41;;;;;;;1.75;1.13;;;17.00;99.90;;;;;;5031225;28;20110;-71
2024/03/29 12:48:19;;;;;;;2.03;1.30;;;17.20;99.90;;;;;;5030581;28;20096;-73
2024/03/29 12:50:46;;;;;;;3.33;1.60;;;17.30;99.90;;;;;;5030295;28;20065;-73
2024/03/29 12:53:13;;;;;;;2.40;1.13;;;17.40;99.90;;;;;;5025013;28;20029;-86
2024/03/29 12:55:44;;;;;;;2.35;1.30;;;18.00;99.90;;;;;;5032673;28;20082;-78
2024/03/29 12:58:11;;;;;;;3.03;1.27;;;18.40;99.90;;;;;;5044513;28;20028;-77